ASL100 LGAV-LIMJ
Flight info
| Callsign | ASL100 |
|---|---|
| Flight time | N/A |
| Altitude | 340 |
| Route | KOR1N KOR UL53 OLGAT OFZUD ATRUP GINAR IDONA IDON2P |
| Aircraft | B738/M-SDE3FGHIRWY/LB1 |
Departure
| Time | 2026-05-05 13:42 |
|---|---|
| Airport | Athens Eleftherios Venizelos International Airport (LGAV) |
Arrival
| Time | N/A |
|---|---|
| Airport | Genoa Cristoforo Colombo Airport (LIMJ) |
| Time | Latitude | Longitude | Altitude | Speed | Heading |
|---|---|---|---|---|---|
| 2026-05-05 13:29 | 37.93105 | 23.94180 | 281 ft | 0 kts | 31° |
| 2026-05-05 13:35 | 37.93104 | 23.94180 | 281 ft | 2 kts | 31° |
| 2026-05-05 13:35 | 37.93090 | 23.94169 | 308 ft | 2 kts | 31° |
| 2026-05-05 13:35 | 37.93076 | 23.94158 | 308 ft | 2 kts | 31° |
| 2026-05-05 13:36 | 37.93062 | 23.94148 | 281 ft | 2 kts | 31° |
| 2026-05-05 13:36 | 37.93048 | 23.94137 | 286 ft | 2 kts | 31° |
| 2026-05-05 13:36 | 37.93047 | 23.94136 | 286 ft | 0 kts | 31° |
| 2026-05-05 13:38 | 37.93071 | 23.94136 | 281 ft | 6 kts | 330° |
| 2026-05-05 13:38 | 37.93083 | 23.94066 | 280 ft | 13 kts | 276° |
| 2026-05-05 13:38 | 37.93128 | 23.93935 | 279 ft | 21 kts | 308° |
| 2026-05-05 13:38 | 37.93209 | 23.93801 | 280 ft | 0 kts | 304° |
| 2026-05-05 13:39 | 37.93212 | 23.93796 | 279 ft | 4 kts | 305° |
| 2026-05-05 13:39 | 37.93251 | 23.93733 | 278 ft | 14 kts | 310° |
| 2026-05-05 13:39 | 37.93331 | 23.93602 | 278 ft | 23 kts | 302° |
| 2026-05-05 13:39 | 37.93489 | 23.93513 | 279 ft | 30 kts | 8° |
| 2026-05-05 13:40 | 37.93693 | 23.93632 | 280 ft | 37 kts | 37° |
| 2026-05-05 13:40 | 37.93912 | 23.93843 | 283 ft | 42 kts | 37° |
| 2026-05-05 13:40 | 37.94164 | 23.94075 | 290 ft | 47 kts | 38° |
| 2026-05-05 13:40 | 37.94431 | 23.94333 | 291 ft | 47 kts | 37° |
| 2026-05-05 13:41 | 37.94654 | 23.94545 | 295 ft | 28 kts | 36° |
| 2026-05-05 13:41 | 37.94754 | 23.94515 | 294 ft | 15 kts | 309° |
| 2026-05-05 13:41 | 37.94758 | 23.94509 | 295 ft | 0 kts | 308° |
| 2026-05-05 13:41 | 37.94787 | 23.94460 | 294 ft | 14 kts | 306° |
| 2026-05-05 13:42 | 37.94715 | 23.94320 | 290 ft | 50 kts | 217° |
| 2026-05-05 13:42 | 37.94202 | 23.93835 | 291 ft | 132 kts | 217° |
| 2026-05-05 13:42 | 37.93292 | 23.93017 | 565 ft | 177 kts | 214° |
| 2026-05-05 13:42 | 37.92246 | 23.92295 | 1762 ft | 160 kts | 200° |
| 2026-05-05 13:43 | 37.91207 | 23.92081 | 2902 ft | 158 kts | 187° |
| 2026-05-05 13:43 | 37.89949 | 23.91894 | 3248 ft | 201 kts | 192° |
| 2026-05-05 13:43 | 37.88562 | 23.91372 | 3749 ft | 216 kts | 205° |
| 2026-05-05 13:43 | 37.87125 | 23.90520 | 3951 ft | 240 kts | 208° |
| 2026-05-05 13:44 | 37.85576 | 23.89515 | 4243 ft | 258 kts | 209° |
| 2026-05-05 13:44 | 37.83956 | 23.88454 | 4822 ft | 265 kts | 209° |
| 2026-05-05 13:44 | 37.82301 | 23.87367 | 5520 ft | 271 kts | 209° |
| 2026-05-05 13:44 | 37.80628 | 23.86262 | 6398 ft | 272 kts | 209° |
| 2026-05-05 13:45 | 37.78937 | 23.85143 | 7180 ft | 276 kts | 210° |
| 2026-05-05 13:45 | 37.77226 | 23.84006 | 7957 ft | 279 kts | 210° |
| 2026-05-05 13:45 | 37.75498 | 23.82857 | 8735 ft | 282 kts | 210° |
| 2026-05-05 13:45 | 37.73748 | 23.81694 | 9513 ft | 286 kts | 210° |
| 2026-05-05 13:46 | 37.71977 | 23.80514 | 9964 ft | 290 kts | 210° |
| 2026-05-05 13:46 | 37.70185 | 23.79322 | 10053 ft | 292 kts | 210° |
| 2026-05-05 13:46 | 37.68386 | 23.78126 | 10054 ft | 291 kts | 210° |
| 2026-05-05 13:46 | 37.66620 | 23.76952 | 10054 ft | 290 kts | 210° |
| 2026-05-05 13:47 | 37.64835 | 23.75765 | 10060 ft | 290 kts | 210° |
| 2026-05-05 13:47 | 37.63051 | 23.74579 | 10063 ft | 290 kts | 210° |
| 2026-05-05 13:47 | 37.61266 | 23.73394 | 10063 ft | 290 kts | 210° |
| 2026-05-05 13:47 | 37.59480 | 23.72209 | 10062 ft | 290 kts | 210° |
| 2026-05-05 13:48 | 37.57693 | 23.71020 | 10063 ft | 291 kts | 211° |
| 2026-05-05 13:48 | 37.56071 | 23.69532 | 10021 ft | 287 kts | 233° |
| 2026-05-05 13:48 | 37.55278 | 23.67323 | 10081 ft | 275 kts | 264° |
| 2026-05-05 13:48 | 37.55059 | 23.64936 | 10066 ft | 276 kts | 268° |
| 2026-05-05 13:49 | 37.54816 | 23.62530 | 10074 ft | 278 kts | 264° |
| 2026-05-05 13:49 | 37.54444 | 23.60129 | 10060 ft | 280 kts | 261° |
| 2026-05-05 13:49 | 37.54023 | 23.57725 | 10069 ft | 281 kts | 261° |
| 2026-05-05 13:49 | 37.53594 | 23.55319 | 10068 ft | 282 kts | 261° |
| 2026-05-05 13:50 | 37.53168 | 23.52910 | 10065 ft | 282 kts | 261° |
| 2026-05-05 13:50 | 37.52746 | 23.50501 | 10064 ft | 282 kts | 261° |
| 2026-05-05 13:50 | 37.52327 | 23.48091 | 10072 ft | 282 kts | 261° |
| 2026-05-05 13:50 | 37.51910 | 23.45678 | 10067 ft | 282 kts | 261° |
| 2026-05-05 13:51 | 37.51493 | 23.43266 | 10071 ft | 281 kts | 261° |
| 2026-05-05 13:51 | 37.51077 | 23.40859 | 10049 ft | 280 kts | 261° |
| 2026-05-05 13:51 | 37.50666 | 23.38478 | 10062 ft | 277 kts | 261° |
| 2026-05-05 13:51 | 37.50258 | 23.36109 | 10052 ft | 276 kts | 261° |
| 2026-05-05 13:52 | 37.49851 | 23.33749 | 10061 ft | 275 kts | 261° |
| 2026-05-05 13:52 | 37.49444 | 23.31394 | 10060 ft | 275 kts | 261° |
| 2026-05-05 13:52 | 37.49037 | 23.29040 | 10056 ft | 275 kts | 261° |
| 2026-05-05 13:52 | 37.48629 | 23.26689 | 10069 ft | 275 kts | 261° |
| 2026-05-05 13:53 | 37.48285 | 23.24330 | 10037 ft | 274 kts | 268° |
| 2026-05-05 13:53 | 37.48490 | 23.21989 | 10014 ft | 271 kts | 297° |
| 2026-05-05 13:53 | 37.49739 | 23.20266 | 10504 ft | 270 kts | 333° |
| 2026-05-05 13:53 | 37.51486 | 23.19484 | 11446 ft | 264 kts | 342° |
| 2026-05-05 13:54 | 37.53211 | 23.18630 | 12155 ft | 270 kts | 335° |
| 2026-05-05 13:54 | 37.54906 | 23.17566 | 12858 ft | 274 kts | 333° |
| 2026-05-05 13:54 | 37.56602 | 23.16450 | 13621 ft | 277 kts | 333° |
| 2026-05-05 13:54 | 37.58315 | 23.15330 | 14321 ft | 278 kts | 334° |
| 2026-05-05 13:55 | 37.60038 | 23.14220 | 15021 ft | 279 kts | 334° |
| 2026-05-05 13:55 | 37.61778 | 23.13112 | 15666 ft | 282 kts | 334° |
| 2026-05-05 13:55 | 37.63540 | 23.12001 | 16356 ft | 284 kts | 334° |
| 2026-05-05 13:55 | 37.65312 | 23.10890 | 17054 ft | 285 kts | 334° |
| 2026-05-05 13:56 | 37.67093 | 23.09776 | 17731 ft | 287 kts | 333° |
| 2026-05-05 13:56 | 37.68891 | 23.08655 | 18398 ft | 289 kts | 333° |
| 2026-05-05 13:56 | 37.70699 | 23.07529 | 18981 ft | 290 kts | 333° |
| 2026-05-05 13:56 | 37.72515 | 23.06398 | 19568 ft | 292 kts | 333° |
| 2026-05-05 13:57 | 37.74338 | 23.05263 | 20137 ft | 293 kts | 333° |
| 2026-05-05 13:57 | 37.76174 | 23.04120 | 20695 ft | 295 kts | 333° |
| 2026-05-05 13:57 | 37.78019 | 23.02970 | 21275 ft | 296 kts | 333° |
| 2026-05-05 13:57 | 37.79872 | 23.01816 | 21844 ft | 298 kts | 333° |
| 2026-05-05 13:58 | 37.81735 | 23.00655 | 22425 ft | 299 kts | 333° |
| 2026-05-05 13:58 | 37.83584 | 22.99501 | 23002 ft | 301 kts | 333° |
| 2026-05-05 13:58 | 37.85494 | 22.98308 | 23563 ft | 303 kts | 333° |
| 2026-05-05 13:58 | 37.87363 | 22.97141 | 24032 ft | 304 kts | 333° |
| 2026-05-05 13:59 | 37.91173 | 22.94760 | 24977 ft | 306 kts | 333° |
| 2026-05-05 13:59 | 37.93082 | 22.93567 | 25462 ft | 306 kts | 333° |
| 2026-05-05 14:00 | 37.96940 | 22.91147 | 26387 ft | 308 kts | 333° |
| 2026-05-05 14:00 | 37.98211 | 22.90348 | 26717 ft | 308 kts | 333° |
| 2026-05-05 14:00 | 38.00727 | 22.88765 | 27506 ft | 301 kts | 333° |
| 2026-05-05 14:00 | 38.02590 | 22.87592 | 28144 ft | 297 kts | 333° |
| 2026-05-05 14:01 | 38.04434 | 22.86430 | 28657 ft | 296 kts | 333° |
| 2026-05-05 14:01 | 38.06274 | 22.85269 | 29126 ft | 295 kts | 333° |
| 2026-05-05 14:01 | 38.08101 | 22.84117 | 29677 ft | 291 kts | 333° |
| 2026-05-05 14:01 | 38.09904 | 22.82978 | 30204 ft | 288 kts | 333° |
| 2026-05-05 14:02 | 38.11699 | 22.81849 | 30565 ft | 288 kts | 333° |
| 2026-05-05 14:02 | 38.13500 | 22.80725 | 30840 ft | 290 kts | 333° |
| 2026-05-05 14:02 | 38.15314 | 22.79600 | 31165 ft | 289 kts | 333° |
| 2026-05-05 14:02 | 38.17118 | 22.78490 | 31554 ft | 287 kts | 333° |
| 2026-05-05 14:03 | 38.18918 | 22.77393 | 31857 ft | 288 kts | 333° |
| 2026-05-05 14:03 | 38.20731 | 22.76293 | 32086 ft | 290 kts | 333° |
| 2026-05-05 14:03 | 38.22550 | 22.75197 | 32404 ft | 288 kts | 333° |
| 2026-05-05 14:03 | 38.24357 | 22.74116 | 32773 ft | 286 kts | 333° |
| 2026-05-05 14:04 | 38.26164 | 22.73043 | 33023 ft | 287 kts | 333° |
| 2026-05-05 14:04 | 38.27984 | 22.71968 | 33211 ft | 290 kts | 333° |
| 2026-05-05 14:04 | 38.29816 | 22.70887 | 33428 ft | 291 kts | 333° |
| 2026-05-05 14:04 | 38.31676 | 22.69791 | 33446 ft | 299 kts | 333° |
| 2026-05-05 14:05 | 38.35533 | 22.67512 | 33557 ft | 312 kts | 333° |
| 2026-05-05 14:05 | 38.39504 | 22.65026 | 33626 ft | 324 kts | 321° |
| 2026-05-05 14:06 | 38.40958 | 22.62786 | 33383 ft | 341 kts | 296° |
| 2026-05-05 14:06 | 38.41433 | 22.59759 | 33411 ft | 359 kts | 276° |
| 2026-05-05 14:06 | 38.41336 | 22.56560 | 33622 ft | 364 kts | 274° |
| 2026-05-05 14:06 | 38.41261 | 22.53309 | 33608 ft | 368 kts | 278° |
| 2026-05-05 14:07 | 38.41889 | 22.46813 | 33744 ft | 373 kts | 286° |
| 2026-05-05 14:07 | 38.42994 | 22.40245 | 33842 ft | 384 kts | 287° |
| 2026-05-05 14:08 | 38.44169 | 22.33533 | 34067 ft | 390 kts | 287° |
| 2026-05-05 14:08 | 38.45351 | 22.26674 | 34081 ft | 401 kts | 287° |
| 2026-05-05 14:09 | 38.46546 | 22.19636 | 34066 ft | 411 kts | 286° |
| 2026-05-05 14:09 | 38.47749 | 22.12487 | 34072 ft | 413 kts | 286° |
| 2026-05-05 14:10 | 38.48936 | 22.05394 | 34061 ft | 404 kts | 287° |
| 2026-05-05 14:10 | 38.50109 | 21.98392 | 34068 ft | 405 kts | 286° |
| 2026-05-05 14:11 | 38.51086 | 21.92546 | 34104 ft | 405 kts | 286° |
| 2026-05-05 14:11 | 38.52284 | 21.85500 | 34097 ft | 405 kts | 289° |
| 2026-05-05 14:12 | 38.53503 | 21.82337 | 34045 ft | 396 kts | 312° |
| 2026-05-05 14:12 | 38.55453 | 21.79890 | 34147 ft | 394 kts | 318° |
| 2026-05-05 14:12 | 38.58990 | 21.74570 | 34093 ft | 401 kts | 293° |
| 2026-05-05 14:13 | 38.60605 | 21.67700 | 34112 ft | 402 kts | 295° |
| 2026-05-05 14:13 | 38.62071 | 21.64742 | 34124 ft | 393 kts | 316° |
| 2026-05-05 14:13 | 38.64106 | 21.62394 | 34019 ft | 396 kts | 319° |
| 2026-05-05 14:14 | 38.67580 | 21.57053 | 34194 ft | 396 kts | 296° |
| 2026-05-05 14:14 | 38.68595 | 21.53738 | 34023 ft | 402 kts | 294° |
| 2026-05-05 14:14 | 38.69703 | 21.50484 | 34020 ft | 398 kts | 305° |
| 2026-05-05 14:15 | 38.73340 | 21.45279 | 34114 ft | 391 kts | 314° |
| 2026-05-05 14:15 | 38.76603 | 21.39697 | 34093 ft | 393 kts | 304° |
| 2026-05-05 14:16 | 38.79421 | 21.33698 | 34103 ft | 393 kts | 304° |
| 2026-05-05 14:16 | 38.82331 | 21.27837 | 34113 ft | 392 kts | 306° |
| 2026-05-05 14:17 | 38.85350 | 21.22020 | 34112 ft | 391 kts | 307° |
| 2026-05-05 14:17 | 38.88382 | 21.16238 | 34113 ft | 390 kts | 307° |
| 2026-05-05 14:18 | 38.91402 | 21.10463 | 34132 ft | 389 kts | 307° |
| 2026-05-05 14:18 | 38.94409 | 21.04697 | 34120 ft | 388 kts | 307° |
| 2026-05-05 14:19 | 38.97402 | 20.98949 | 34135 ft | 386 kts | 307° |
| 2026-05-05 14:19 | 39.00385 | 20.93210 | 34128 ft | 386 kts | 306° |
| 2026-05-05 14:20 | 39.03356 | 20.87481 | 34136 ft | 385 kts | 306° |
| 2026-05-05 14:20 | 39.06325 | 20.81745 | 34133 ft | 385 kts | 306° |
| 2026-05-05 14:21 | 39.09291 | 20.76004 | 34138 ft | 385 kts | 306° |
| 2026-05-05 14:21 | 39.12254 | 20.70258 | 34127 ft | 386 kts | 306° |
| 2026-05-05 14:22 | 39.15219 | 20.64499 | 34155 ft | 385 kts | 306° |
| 2026-05-05 14:22 | 39.18177 | 20.58745 | 34180 ft | 384 kts | 306° |
| 2026-05-05 14:23 | 39.21133 | 20.52977 | 34164 ft | 386 kts | 306° |
| 2026-05-05 14:23 | 39.24112 | 20.47161 | 34145 ft | 389 kts | 306° |
| 2026-05-05 14:24 | 39.27101 | 20.41314 | 34119 ft | 391 kts | 306° |
| 2026-05-05 14:24 | 39.30095 | 20.35447 | 34104 ft | 392 kts | 305° |
| 2026-05-05 14:25 | 39.33091 | 20.29562 | 34103 ft | 393 kts | 305° |
| 2026-05-05 14:25 | 39.36093 | 20.23655 | 34108 ft | 394 kts | 305° |
| 2026-05-05 14:26 | 39.39089 | 20.17750 | 34110 ft | 393 kts | 305° |
| 2026-05-05 14:26 | 39.42083 | 20.11838 | 34106 ft | 393 kts | 305° |
| 2026-05-05 14:27 | 39.45126 | 20.05982 | 34094 ft | 392 kts | 308° |
| 2026-05-05 14:27 | 39.48686 | 20.00674 | 34091 ft | 391 kts | 315° |
| 2026-05-05 14:28 | 39.52653 | 19.95868 | 34114 ft | 391 kts | 317° |
| 2026-05-05 14:28 | 39.56593 | 19.91026 | 34133 ft | 390 kts | 315° |
| 2026-05-05 14:29 | 39.60445 | 19.86059 | 34143 ft | 391 kts | 314° |
| 2026-05-05 14:29 | 39.64260 | 19.81025 | 34137 ft | 391 kts | 314° |
| 2026-05-05 14:30 | 39.68068 | 19.75964 | 34133 ft | 392 kts | 314° |
| 2026-05-05 14:30 | 39.71876 | 19.70895 | 34142 ft | 392 kts | 314° |
| 2026-05-05 14:31 | 39.75686 | 19.65814 | 34150 ft | 393 kts | 314° |
| 2026-05-05 14:31 | 39.79500 | 19.60720 | 34125 ft | 393 kts | 314° |
| 2026-05-05 14:32 | 39.83287 | 19.55654 | 34120 ft | 393 kts | 314° |
| 2026-05-05 14:32 | 39.87099 | 19.50547 | 34115 ft | 393 kts | 313° |
| 2026-05-05 14:33 | 39.90907 | 19.45436 | 34125 ft | 393 kts | 313° |
| 2026-05-05 14:33 | 39.94716 | 19.40315 | 34135 ft | 393 kts | 313° |
| 2026-05-05 14:34 | 39.98523 | 19.35187 | 34113 ft | 394 kts | 313° |
| 2026-05-05 14:34 | 40.02330 | 19.30052 | 34117 ft | 394 kts | 313° |
| 2026-05-05 14:35 | 40.06140 | 19.24903 | 34117 ft | 394 kts | 313° |
| 2026-05-05 14:35 | 40.09949 | 19.19747 | 34106 ft | 395 kts | 313° |
| 2026-05-05 14:36 | 40.13762 | 19.14576 | 34120 ft | 395 kts | 313° |
| 2026-05-05 14:36 | 40.17579 | 19.09390 | 34100 ft | 396 kts | 312° |
| 2026-05-05 14:37 | 40.21393 | 19.04201 | 34121 ft | 396 kts | 312° |
| 2026-05-05 14:37 | 40.25139 | 18.98917 | 34085 ft | 396 kts | 307° |
| 2026-05-05 14:38 | 40.28128 | 18.92887 | 34092 ft | 396 kts | 298° |
| 2026-05-05 14:38 | 40.30583 | 18.86437 | 34094 ft | 396 kts | 297° |
| 2026-05-05 14:39 | 40.33075 | 18.80005 | 34100 ft | 396 kts | 298° |
| 2026-05-05 14:39 | 40.35675 | 18.73636 | 34115 ft | 396 kts | 298° |
| 2026-05-05 14:40 | 40.38329 | 18.67293 | 34118 ft | 396 kts | 299° |
| 2026-05-05 14:40 | 40.40996 | 18.60953 | 34110 ft | 397 kts | 299° |
| 2026-05-05 14:41 | 40.43664 | 18.54607 | 34107 ft | 397 kts | 298° |
| 2026-05-05 14:41 | 40.46326 | 18.48257 | 34090 ft | 397 kts | 298° |
| 2026-05-05 14:42 | 40.48966 | 18.41948 | 34079 ft | 397 kts | 298° |
| 2026-05-05 14:42 | 40.51617 | 18.35596 | 34072 ft | 397 kts | 298° |
| 2026-05-05 14:43 | 40.54262 | 18.29245 | 34073 ft | 396 kts | 298° |
| 2026-05-05 14:43 | 40.56902 | 18.22893 | 34097 ft | 396 kts | 298° |
| 2026-05-05 14:44 | 40.59536 | 18.16542 | 34096 ft | 395 kts | 298° |
| 2026-05-05 14:44 | 40.62167 | 18.10185 | 34094 ft | 395 kts | 298° |
| 2026-05-05 14:45 | 40.64795 | 18.03823 | 34073 ft | 396 kts | 297° |
| 2026-05-05 14:45 | 40.67419 | 17.97456 | 34097 ft | 396 kts | 297° |
| 2026-05-05 14:46 | 40.70043 | 17.91076 | 34084 ft | 396 kts | 297° |
| 2026-05-05 14:46 | 40.72666 | 17.84685 | 34076 ft | 397 kts | 297° |
| 2026-05-05 14:47 | 40.75287 | 17.78284 | 34094 ft | 397 kts | 297° |
| 2026-05-05 14:47 | 40.77907 | 17.71871 | 34065 ft | 398 kts | 297° |
| 2026-05-05 14:48 | 40.80529 | 17.65441 | 34089 ft | 398 kts | 297° |
| 2026-05-05 14:48 | 40.83152 | 17.58995 | 34065 ft | 399 kts | 297° |
| 2026-05-05 14:49 | 40.85774 | 17.52536 | 34066 ft | 400 kts | 296° |
| 2026-05-05 14:49 | 40.88399 | 17.46057 | 34077 ft | 400 kts | 296° |
| 2026-05-05 14:50 | 40.91025 | 17.39560 | 34056 ft | 401 kts | 296° |
| 2026-05-05 14:50 | 40.93651 | 17.33052 | 34080 ft | 402 kts | 296° |
| 2026-05-05 14:51 | 40.96281 | 17.26516 | 34083 ft | 402 kts | 296° |
| 2026-05-05 14:51 | 40.98909 | 17.19972 | 34064 ft | 403 kts | 296° |
| 2026-05-05 14:52 | 41.01539 | 17.13409 | 34090 ft | 404 kts | 296° |
| 2026-05-05 14:52 | 41.04170 | 17.06827 | 34065 ft | 405 kts | 296° |
| 2026-05-05 14:53 | 41.06801 | 17.00232 | 34070 ft | 405 kts | 296° |
| 2026-05-05 14:53 | 41.09432 | 16.93621 | 34091 ft | 406 kts | 296° |
| 2026-05-05 14:54 | 41.12065 | 16.86991 | 34079 ft | 406 kts | 295° |
| 2026-05-05 14:54 | 41.14696 | 16.80354 | 34074 ft | 407 kts | 295° |
| 2026-05-05 14:55 | 41.17322 | 16.73711 | 34083 ft | 407 kts | 295° |
| 2026-05-05 14:55 | 41.19945 | 16.67062 | 34095 ft | 406 kts | 295° |
| 2026-05-05 14:56 | 41.22124 | 16.61528 | 34071 ft | 406 kts | 295° |
| 2026-05-05 14:56 | 41.24737 | 16.54876 | 34061 ft | 407 kts | 295° |
| 2026-05-05 14:57 | 41.27348 | 16.48214 | 34053 ft | 406 kts | 295° |
| 2026-05-05 14:57 | 41.29953 | 16.41552 | 34051 ft | 406 kts | 295° |
| 2026-05-05 14:58 | 41.32555 | 16.34885 | 34068 ft | 406 kts | 294° |
| 2026-05-05 14:58 | 41.35151 | 16.28215 | 34064 ft | 406 kts | 294° |
| 2026-05-05 14:59 | 41.37745 | 16.21537 | 34047 ft | 406 kts | 294° |
| 2026-05-05 14:59 | 41.40334 | 16.14855 | 34043 ft | 406 kts | 294° |
| 2026-05-05 15:00 | 41.42481 | 16.09304 | 34078 ft | 406 kts | 294° |
| 2026-05-05 15:00 | 41.45498 | 16.01482 | 34076 ft | 406 kts | 294° |
| 2026-05-05 15:01 | 41.48075 | 15.94787 | 34065 ft | 406 kts | 293° |
| 2026-05-05 15:01 | 41.50646 | 15.88093 | 34075 ft | 406 kts | 293° |
| 2026-05-05 15:02 | 41.53212 | 15.81392 | 34089 ft | 405 kts | 293° |
| 2026-05-05 15:02 | 41.55758 | 15.74730 | 34096 ft | 405 kts | 293° |
| 2026-05-05 15:03 | 41.58333 | 15.67978 | 34089 ft | 405 kts | 293° |
| 2026-05-05 15:03 | 41.60886 | 15.61265 | 34073 ft | 406 kts | 293° |
| 2026-05-05 15:04 | 41.63420 | 15.54588 | 34084 ft | 405 kts | 293° |
| 2026-05-05 15:04 | 41.65984 | 15.47817 | 34057 ft | 406 kts | 293° |
| 2026-05-05 15:05 | 41.69783 | 15.37753 | 34043 ft | 406 kts | 293° |
| 2026-05-05 15:06 | 41.72326 | 15.30998 | 34025 ft | 407 kts | 293° |
| 2026-05-05 15:06 | 41.74870 | 15.24224 | 34029 ft | 407 kts | 293° |
| 2026-05-05 15:07 | 41.77413 | 15.17437 | 34019 ft | 408 kts | 293° |
| 2026-05-05 15:07 | 41.79959 | 15.10628 | 34028 ft | 409 kts | 293° |
| 2026-05-05 15:08 | 41.82504 | 15.03803 | 34004 ft | 410 kts | 293° |
| 2026-05-05 15:08 | 41.85046 | 14.96972 | 34016 ft | 409 kts | 293° |
| 2026-05-05 15:09 | 41.87583 | 14.90137 | 34003 ft | 409 kts | 293° |
| 2026-05-05 15:09 | 41.90114 | 14.83302 | 34008 ft | 408 kts | 293° |
| 2026-05-05 15:10 | 41.92635 | 14.76478 | 34005 ft | 408 kts | 293° |
| 2026-05-05 15:10 | 41.95150 | 14.69652 | 33996 ft | 407 kts | 293° |
| 2026-05-05 15:11 | 41.97656 | 14.62836 | 34007 ft | 407 kts | 293° |
| 2026-05-05 15:11 | 42.00153 | 14.56025 | 33989 ft | 406 kts | 293° |
| 2026-05-05 15:12 | 42.02641 | 14.49225 | 33994 ft | 404 kts | 293° |
| 2026-05-05 15:12 | 42.05117 | 14.42441 | 34002 ft | 403 kts | 293° |
| 2026-05-05 15:13 | 42.07581 | 14.35673 | 34012 ft | 402 kts | 293° |
| 2026-05-05 15:13 | 42.10037 | 14.28913 | 34017 ft | 401 kts | 292° |
| 2026-05-05 15:14 | 42.12465 | 14.22211 | 34001 ft | 400 kts | 292° |
| 2026-05-05 15:14 | 42.14896 | 14.15487 | 34023 ft | 398 kts | 292° |
| 2026-05-05 15:15 | 42.17319 | 14.08769 | 34011 ft | 399 kts | 292° |
| 2026-05-05 15:15 | 42.19746 | 14.02019 | 34003 ft | 401 kts | 292° |
| 2026-05-05 15:16 | 42.22176 | 13.95249 | 34008 ft | 402 kts | 292° |
| 2026-05-05 15:16 | 42.24607 | 13.88459 | 34009 ft | 402 kts | 292° |
| 2026-05-05 15:17 | 42.27037 | 13.81657 | 34046 ft | 402 kts | 292° |
| 2026-05-05 15:17 | 42.29470 | 13.74826 | 34014 ft | 403 kts | 292° |
| 2026-05-05 15:18 | 42.31901 | 13.67989 | 34014 ft | 403 kts | 292° |
| 2026-05-05 15:18 | 42.34326 | 13.61152 | 34013 ft | 403 kts | 292° |
| 2026-05-05 15:19 | 42.36959 | 13.54445 | 34019 ft | 405 kts | 297° |
| 2026-05-05 15:19 | 42.40016 | 13.48023 | 34007 ft | 407 kts | 300° |
| 2026-05-05 15:20 | 42.43268 | 13.41754 | 34034 ft | 406 kts | 301° |
| 2026-05-05 15:20 | 42.46454 | 13.35446 | 34055 ft | 405 kts | 300° |
| 2026-05-05 15:21 | 42.49562 | 13.29074 | 34074 ft | 405 kts | 299° |
| 2026-05-05 15:21 | 42.52634 | 13.22670 | 34073 ft | 405 kts | 298° |
| 2026-05-05 15:22 | 42.55697 | 13.16250 | 34072 ft | 405 kts | 298° |
| 2026-05-05 15:22 | 42.58751 | 13.09835 | 34074 ft | 404 kts | 298° |
| 2026-05-05 15:23 | 42.61797 | 13.03426 | 34068 ft | 404 kts | 298° |
| 2026-05-05 15:23 | 42.64841 | 12.97005 | 34074 ft | 404 kts | 298° |
| 2026-05-05 15:24 | 42.67856 | 12.90635 | 34068 ft | 403 kts | 298° |
| 2026-05-05 15:24 | 42.70877 | 12.84238 | 34077 ft | 400 kts | 298° |
| 2026-05-05 15:25 | 42.73881 | 12.77865 | 34096 ft | 399 kts | 298° |
| 2026-05-05 15:25 | 42.76887 | 12.71470 | 34053 ft | 401 kts | 298° |
| 2026-05-05 15:26 | 42.79898 | 12.65052 | 34048 ft | 403 kts | 298° |
| 2026-05-05 15:26 | 42.82911 | 12.58616 | 34036 ft | 403 kts | 298° |
| 2026-05-05 15:27 | 42.85924 | 12.52166 | 34040 ft | 404 kts | 297° |
| 2026-05-05 15:27 | 42.88939 | 12.45699 | 34052 ft | 404 kts | 297° |
| 2026-05-05 15:28 | 42.91955 | 12.39215 | 34059 ft | 405 kts | 297° |
| 2026-05-05 15:28 | 42.94971 | 12.32718 | 34058 ft | 405 kts | 297° |
| 2026-05-05 15:29 | 42.97980 | 12.26220 | 34058 ft | 404 kts | 297° |
| 2026-05-05 15:29 | 43.00982 | 12.19723 | 34051 ft | 405 kts | 297° |
| 2026-05-05 15:30 | 43.03983 | 12.13215 | 34035 ft | 405 kts | 297° |
| 2026-05-05 15:30 | 43.06975 | 12.06713 | 34049 ft | 403 kts | 297° |
| 2026-05-05 15:31 | 43.09936 | 12.00262 | 34034 ft | 403 kts | 297° |
| 2026-05-05 15:31 | 43.12910 | 11.93769 | 34030 ft | 402 kts | 297° |
| 2026-05-05 15:32 | 43.15873 | 11.87285 | 34034 ft | 402 kts | 296° |
| 2026-05-05 15:32 | 43.18831 | 11.80799 | 34035 ft | 401 kts | 296° |
| 2026-05-05 15:33 | 43.21783 | 11.74312 | 34011 ft | 401 kts | 296° |
| 2026-05-05 15:33 | 43.24723 | 11.67835 | 34015 ft | 400 kts | 296° |
| 2026-05-05 15:34 | 43.27662 | 11.61346 | 34011 ft | 400 kts | 296° |
| 2026-05-05 15:34 | 43.30600 | 11.54845 | 34016 ft | 401 kts | 296° |
| 2026-05-05 15:35 | 43.33537 | 11.48334 | 34020 ft | 401 kts | 296° |
| 2026-05-05 15:35 | 43.36481 | 11.41790 | 34002 ft | 403 kts | 296° |
| 2026-05-05 15:36 | 43.39428 | 11.35226 | 33995 ft | 404 kts | 295° |
| 2026-05-05 15:36 | 43.42376 | 11.28645 | 34000 ft | 405 kts | 295° |
| 2026-05-05 15:37 | 43.45322 | 11.22054 | 34003 ft | 405 kts | 295° |
| 2026-05-05 15:37 | 43.48267 | 11.15451 | 34004 ft | 404 kts | 295° |
| 2026-05-05 15:38 | 43.51206 | 11.08844 | 34000 ft | 405 kts | 295° |
| 2026-05-05 15:38 | 43.54144 | 11.02224 | 33775 ft | 409 kts | 295° |
| 2026-05-05 15:38 | 43.55638 | 10.98844 | 32827 ft | 416 kts | 295° |
| 2026-05-05 15:39 | 43.57138 | 10.95458 | 32290 ft | 411 kts | 295° |
| 2026-05-05 15:39 | 43.58632 | 10.92080 | 31553 ft | 415 kts | 295° |
| 2026-05-05 15:39 | 43.60139 | 10.88668 | 30953 ft | 418 kts | 296° |
| 2026-05-05 15:39 | 43.61655 | 10.85232 | 30305 ft | 421 kts | 296° |
| 2026-05-05 15:40 | 43.63173 | 10.81762 | 29655 ft | 423 kts | 295° |
| 2026-05-05 15:40 | 43.64400 | 10.78094 | 28815 ft | 421 kts | 284° |
| 2026-05-05 15:40 | 43.65142 | 10.74204 | 28273 ft | 417 kts | 279° |
| 2026-05-05 15:40 | 43.65788 | 10.70270 | 27521 ft | 424 kts | 280° |
| 2026-05-05 15:41 | 43.66600 | 10.66308 | 26872 ft | 433 kts | 284° |
| 2026-05-05 15:41 | 43.67662 | 10.62395 | 26230 ft | 438 kts | 288° |
| 2026-05-05 15:41 | 43.68852 | 10.58500 | 25602 ft | 441 kts | 289° |
| 2026-05-05 15:41 | 43.70037 | 10.54648 | 24986 ft | 442 kts | 289° |
| 2026-05-05 15:42 | 43.71214 | 10.50689 | 24387 ft | 437 kts | 288° |
| 2026-05-05 15:42 | 43.71949 | 10.48114 | 23978 ft | 432 kts | 287° |
| 2026-05-05 15:42 | 43.73333 | 10.43005 | 23124 ft | 425 kts | 286° |
| 2026-05-05 15:42 | 43.74326 | 10.39163 | 22441 ft | 423 kts | 285° |
| 2026-05-05 15:43 | 43.75297 | 10.35344 | 21754 ft | 420 kts | 285° |
| 2026-05-05 15:43 | 43.76261 | 10.31536 | 21092 ft | 418 kts | 285° |
| 2026-05-05 15:43 | 43.77219 | 10.27753 | 20444 ft | 416 kts | 285° |
| 2026-05-05 15:43 | 43.78176 | 10.23984 | 19811 ft | 414 kts | 285° |
| 2026-05-05 15:44 | 43.78822 | 10.21448 | 19395 ft | 413 kts | 285° |
| 2026-05-05 15:44 | 43.79774 | 10.17709 | 18784 ft | 411 kts | 285° |
| 2026-05-05 15:44 | 43.80722 | 10.13986 | 18187 ft | 410 kts | 285° |
| 2026-05-05 15:44 | 43.81667 | 10.10272 | 17494 ft | 408 kts | 285° |
| 2026-05-05 15:45 | 43.82605 | 10.06580 | 16782 ft | 405 kts | 285° |
| 2026-05-05 15:45 | 43.83531 | 10.02928 | 16133 ft | 399 kts | 285° |
| 2026-05-05 15:45 | 43.84444 | 9.99330 | 15484 ft | 394 kts | 285° |
| 2026-05-05 15:45 | 43.85343 | 9.95775 | 14846 ft | 389 kts | 285° |
| 2026-05-05 15:46 | 43.86218 | 9.92309 | 14236 ft | 384 kts | 285° |
| 2026-05-05 15:46 | 43.87104 | 9.88792 | 13601 ft | 380 kts | 285° |
| 2026-05-05 15:46 | 43.87958 | 9.85398 | 12930 ft | 376 kts | 285° |
| 2026-05-05 15:46 | 43.88812 | 9.81997 | 12271 ft | 372 kts | 286° |
| 2026-05-05 15:47 | 43.89648 | 9.78671 | 12158 ft | 358 kts | 286° |
| 2026-05-05 15:47 | 43.90464 | 9.75419 | 11890 ft | 362 kts | 286° |
| 2026-05-05 15:47 | 43.91295 | 9.72083 | 11706 ft | 369 kts | 286° |
| 2026-05-05 15:47 | 43.92137 | 9.68704 | 11493 ft | 371 kts | 286° |
| 2026-05-05 15:48 | 43.92977 | 9.65336 | 11272 ft | 369 kts | 286° |
| 2026-05-05 15:48 | 43.93815 | 9.61978 | 11068 ft | 368 kts | 286° |
| 2026-05-05 15:48 | 43.94648 | 9.58632 | 10861 ft | 367 kts | 286° |
| 2026-05-05 15:48 | 43.95479 | 9.55286 | 10651 ft | 366 kts | 286° |
| 2026-05-05 15:49 | 43.96309 | 9.51943 | 10445 ft | 366 kts | 286° |
| 2026-05-05 15:49 | 43.97137 | 9.48603 | 10242 ft | 366 kts | 286° |
| 2026-05-05 15:49 | 43.97963 | 9.45262 | 10043 ft | 366 kts | 286° |
| 2026-05-05 15:49 | 43.98788 | 9.41917 | 9835 ft | 366 kts | 286° |
| 2026-05-05 15:50 | 43.99602 | 9.38570 | 9617 ft | 366 kts | 286° |
| 2026-05-05 15:50 | 44.00407 | 9.35232 | 9391 ft | 363 kts | 285° |
| 2026-05-05 15:50 | 44.01206 | 9.31909 | 9169 ft | 363 kts | 286° |
| 2026-05-05 15:50 | 44.02003 | 9.28585 | 8949 ft | 362 kts | 285° |
| 2026-05-05 15:51 | 44.02799 | 9.25268 | 8729 ft | 361 kts | 285° |
| 2026-05-05 15:51 | 44.03592 | 9.21957 | 8517 ft | 361 kts | 285° |
| 2026-05-05 15:51 | 44.04383 | 9.18654 | 8303 ft | 360 kts | 285° |
| 2026-05-05 15:51 | 44.05173 | 9.15352 | 8086 ft | 360 kts | 285° |
| 2026-05-05 15:52 | 44.05961 | 9.12055 | 7875 ft | 359 kts | 285° |
| 2026-05-05 15:52 | 44.06747 | 9.08762 | 7670 ft | 359 kts | 286° |
| 2026-05-05 15:52 | 44.07679 | 9.05542 | 7421 ft | 361 kts | 295° |
| 2026-05-05 15:52 | 44.09280 | 9.02827 | 7058 ft | 369 kts | 321° |
| 2026-05-05 15:53 | 44.11606 | 9.01400 | 6921 ft | 370 kts | 347° |
| 2026-05-05 15:53 | 44.14154 | 9.01440 | 6741 ft | 375 kts | 10° |
| 2026-05-05 15:53 | 44.16638 | 9.02389 | 6671 ft | 365 kts | 16° |
| 2026-05-05 15:53 | 44.19018 | 9.03442 | 6420 ft | 350 kts | 16° |
| 2026-05-05 15:54 | 44.21286 | 9.04373 | 6200 ft | 330 kts | 14° |
| 2026-05-05 15:54 | 44.23446 | 9.05183 | 5965 ft | 313 kts | 13° |
| 2026-05-05 15:54 | 44.25487 | 9.05997 | 5726 ft | 299 kts | 19° |
| 2026-05-05 15:54 | 44.27332 | 9.07195 | 5464 ft | 288 kts | 34° |
| 2026-05-05 15:55 | 44.28684 | 9.09162 | 5233 ft | 275 kts | 56° |
| 2026-05-05 15:55 | 44.29752 | 9.11328 | 5052 ft | 270 kts | 56° |
| 2026-05-05 15:55 | 44.30843 | 9.13426 | 4833 ft | 264 kts | 54° |
| 2026-05-05 15:55 | 44.31941 | 9.15440 | 4619 ft | 257 kts | 52° |
| 2026-05-05 15:56 | 44.33297 | 9.16957 | 4474 ft | 247 kts | 17° |
| 2026-05-05 15:56 | 44.34917 | 9.17003 | 4511 ft | 227 kts | 342° |
| 2026-05-05 15:56 | 44.36394 | 9.16335 | 4549 ft | 226 kts | 340° |
| 2026-05-05 15:56 | 44.37905 | 9.15699 | 4522 ft | 226 kts | 342° |